createdAt,value
2023-04-14T00:01:59.292Z,94.80
2023-04-14T00:05:02.048Z,94.96
2023-04-14T00:08:04.834Z,94.81
2023-04-14T00:11:07.544Z,95.18
2023-04-14T00:14:11.622Z,95.04
2023-04-14T00:17:14.343Z,94.92
2023-04-14T00:20:17.166Z,94.75
2023-04-14T00:23:19.882Z,94.95
2023-04-14T00:26:22.961Z,95.07
2023-04-14T00:29:27.225Z,95.57
2023-04-14T00:32:30.194Z,95.40
2023-04-14T00:35:33.243Z,95.71
2023-04-14T00:38:35.976Z,95.81
2023-04-14T00:41:38.652Z,95.74
2023-04-14T00:44:42.766Z,95.86
2023-04-14T00:47:49.232Z,96.41
2023-04-14T00:50:52.598Z,96.23
2023-04-14T00:53:56.728Z,96.26
2023-04-14T00:57:00.655Z,95.85
2023-04-14T01:00:05.922Z,95.43
2023-04-14T01:03:08.989Z,95.28
2023-04-14T01:06:11.844Z,95.34
2023-04-14T01:09:15.913Z,95.15
2023-04-14T01:12:32.619Z,95.05
2023-04-14T01:15:42.438Z,95.15
2023-04-14T01:18:52.920Z,95.06
2023-04-14T01:21:58.689Z,94.95
2023-04-14T01:25:22.014Z,95.06
2023-04-14T01:28:43.498Z,94.89
2023-04-14T01:31:49.950Z,94.59
2023-04-14T01:34:56.284Z,94.67
2023-04-14T01:38:04.835Z,94.79
2023-04-14T01:41:09.868Z,94.73
2023-04-14T01:44:15.001Z,94.62
2023-04-14T01:47:21.220Z,94.59
2023-04-14T01:50:26.383Z,94.94
2023-04-14T01:53:33.425Z,94.92
2023-04-14T01:56:38.581Z,94.70
2023-04-14T01:59:43.369Z,94.48
2023-04-14T02:02:50.266Z,94.42
2023-04-14T02:05:56.553Z,94.27
2023-04-14T02:09:02.330Z,94.38
2023-04-14T02:12:07.618Z,94.38
2023-04-14T02:15:16.088Z,94.07
2023-04-14T02:18:23.307Z,93.73
2023-04-14T02:21:27.334Z,94.21
2023-04-14T02:24:30.809Z,93.93
2023-04-14T02:27:39.164Z,94.23
2023-04-14T02:30:45.666Z,94.20
2023-04-14T02:33:54.621Z,93.79
2023-04-14T02:36:58.872Z,93.75
2023-04-14T02:40:05.328Z,93.76
2023-04-14T02:43:14.192Z,93.58
2023-04-14T02:46:20.790Z,93.59
2023-04-14T02:49:26.070Z,93.43
2023-04-14T02:52:31.609Z,93.59
2023-04-14T02:55:35.644Z,93.70
2023-04-14T02:58:39.177Z,93.85
2023-04-14T03:01:44.399Z,93.91
2023-04-14T03:04:48.810Z,93.72
2023-04-14T03:07:53.643Z,93.62
2023-04-14T03:10:57.213Z,93.63
2023-04-14T03:14:00.315Z,93.56
2023-04-14T03:17:04.667Z,93.84
2023-04-14T03:20:10.728Z,93.61
2023-04-14T03:23:14.876Z,93.67
2023-04-14T03:26:22.098Z,93.61
2023-04-14T03:29:27.952Z,93.63
2023-04-14T03:32:35.798Z,93.89
2023-04-14T03:35:41.871Z,93.62
2023-04-14T03:38:46.796Z,93.80
2023-04-14T03:41:51.723Z,93.13
2023-04-14T03:44:57.151Z,93.35
2023-04-14T03:48:03.711Z,93.45
2023-04-14T03:51:10.745Z,93.44
2023-04-14T03:54:16.529Z,93.29
2023-04-14T03:57:23.771Z,93.32
2023-04-14T04:00:28.117Z,93.50
2023-04-14T04:03:33.608Z,93.53
2023-04-14T04:06:40.216Z,93.45
2023-04-14T04:09:44.385Z,93.35
2023-04-14T04:12:49.870Z,93.62
2023-04-14T04:15:53.707Z,93.52
2023-04-14T04:18:57.430Z,93.49
2023-04-14T04:22:02.965Z,93.19
2023-04-14T04:25:08.106Z,92.86
2023-04-14T04:28:14.275Z,92.74
2023-04-14T04:31:17.401Z,92.77
2023-04-14T04:34:20.884Z,92.76
2023-04-14T04:37:28.727Z,93.00
2023-04-14T04:40:36.864Z,92.76
2023-04-14T04:43:39.529Z,92.59
2023-04-14T04:46:53.284Z,92.33
2023-04-14T04:49:55.958Z,92.31
2023-04-14T04:52:59.966Z,91.92
2023-04-14T04:56:03.353Z,92.04
2023-04-14T04:59:06.054Z,92.00
2023-04-14T05:02:09.100Z,92.08
2023-04-14T05:05:12.044Z,92.19
2023-04-14T05:08:16.419Z,92.35
2023-04-14T05:11:19.286Z,92.50
2023-04-14T05:14:21.997Z,92.45
2023-04-14T05:17:24.714Z,92.31
2023-04-14T05:20:27.876Z,92.21
2023-04-14T05:23:33.802Z,92.66
2023-04-14T05:26:57.626Z,92.46
2023-04-14T05:29:59.372Z,92.40
2023-04-14T05:33:03.526Z,92.33
2023-04-14T05:36:06.831Z,92.36
2023-04-14T05:39:10.880Z,92.32
2023-04-14T05:42:13.588Z,92.31
2023-04-14T05:45:16.296Z,91.67
2023-04-14T05:48:19.110Z,92.16
2023-04-14T05:51:21.822Z,92.00
2023-04-14T05:54:25.928Z,91.71
2023-04-14T05:57:28.637Z,91.44
2023-04-14T06:00:31.321Z,90.80
2023-04-14T06:03:34.686Z,90.80
2023-04-14T06:06:38.676Z,90.59
2023-04-14T06:09:43.070Z,90.01
2023-04-14T06:12:45.992Z,89.88
2023-04-14T06:15:49.753Z,89.94
2023-04-14T06:18:52.395Z,89.64
2023-04-14T06:21:55.802Z,89.63
2023-04-14T06:24:59.937Z,89.32
2023-04-14T06:28:03.525Z,88.98
2023-04-14T06:31:06.687Z,88.69
2023-04-14T06:34:09.397Z,88.32
2023-04-14T06:37:12.122Z,88.25
2023-04-14T06:40:16.354Z,88.48
2023-04-14T06:43:19.847Z,88.40
2023-04-14T06:46:22.530Z,88.40
2023-04-14T06:49:25.485Z,88.34
2023-04-14T06:52:28.213Z,88.00
2023-04-14T06:55:32.504Z,88.12
2023-04-14T06:58:35.248Z,87.87
2023-04-14T07:01:38.019Z,87.74
2023-04-14T07:04:40.864Z,87.93
2023-04-14T07:07:43.900Z,87.60
2023-04-14T07:10:48.550Z,86.99
2023-04-14T07:13:51.473Z,86.57
2023-04-14T07:16:54.472Z,86.48
2023-04-14T07:19:58.387Z,85.86
2023-04-14T07:23:01.070Z,85.29
2023-04-14T07:26:05.370Z,84.51
2023-04-14T07:29:08.075Z,83.69
2023-04-14T07:32:12.116Z,83.06
2023-04-14T07:35:15.011Z,82.52
2023-04-14T07:38:17.687Z,81.86
2023-04-14T07:41:21.884Z,80.80
2023-04-14T07:44:24.542Z,79.58
2023-04-14T07:47:27.267Z,78.73
2023-04-14T07:50:30.227Z,78.29
2023-04-14T07:53:33.818Z,77.96
2023-04-14T07:56:37.936Z,78.07
2023-04-14T07:59:42.847Z,78.46
2023-04-14T08:02:46.021Z,79.12
2023-04-14T08:05:48.841Z,79.58
2023-04-14T08:08:51.726Z,80.18
2023-04-14T08:11:56.878Z,80.75
2023-04-14T08:14:59.669Z,81.23
2023-04-14T08:18:02.954Z,81.91
2023-04-14T08:21:05.895Z,82.13
2023-04-14T08:24:08.823Z,82.29
2023-04-14T08:27:12.902Z,82.51
2023-04-14T08:30:15.872Z,82.94
2023-04-14T08:33:18.592Z,83.14
2023-04-14T08:36:21.672Z,83.30
2023-04-14T08:39:24.340Z,83.25
2023-04-14T08:42:28.736Z,82.86
2023-04-14T08:45:32.446Z,82.68
2023-04-14T08:48:39.142Z,82.60
2023-04-14T08:51:44.698Z,82.11
2023-04-14T08:54:51.097Z,82.07
2023-04-14T08:57:56.234Z,81.80
2023-04-14T09:01:00.150Z,81.67
2023-04-14T09:04:05.098Z,81.86
2023-04-14T09:07:09.074Z,81.87
2023-04-14T09:10:12.542Z,81.66
2023-04-14T09:13:17.858Z,81.31
2023-04-14T09:16:20.820Z,81.43
2023-04-14T09:19:25.368Z,81.16
2023-04-14T09:22:28.671Z,81.34
2023-04-14T09:25:31.786Z,80.65
2023-04-14T09:28:35.951Z,80.51
2023-04-14T09:31:38.929Z,80.19
2023-04-14T09:34:50.104Z,79.99
2023-04-14T09:37:52.772Z,79.32
2023-04-14T09:40:57.021Z,78.55
2023-04-14T09:44:08.815Z,73.67
2023-04-14T09:47:15.388Z,73.43
2023-04-14T09:50:18.062Z,71.46
2023-04-14T09:53:26.650Z,67.96
2023-04-14T09:56:29.401Z,67.18
2023-04-14T09:59:35.560Z,69.05
2023-04-14T10:02:49.324Z,69.83
2023-04-14T10:05:52.108Z,70.41
2023-04-14T10:08:57.106Z,65.08
2023-04-14T10:12:10.890Z,63.47
2023-04-14T10:15:17.290Z,61.82
2023-04-14T10:18:20.081Z,62.33
2023-04-14T10:21:25.450Z,62.71
2023-04-14T10:24:28.239Z,63.97
2023-04-14T10:27:33.893Z,65.03
2023-04-14T10:30:39.049Z,63.60
2023-04-14T10:33:42.247Z,62.52
2023-04-14T10:36:45.414Z,59.67
2023-04-14T10:39:56.129Z,61.10
2023-04-14T10:42:58.826Z,60.88
2023-04-14T10:46:03.642Z,59.46
2023-04-14T10:49:06.497Z,54.99
2023-04-14T10:52:33.193Z,54.25
2023-04-14T10:55:51.646Z,49.31
2023-04-14T10:58:56.025Z,51.74
2023-04-14T11:02:00.434Z,54.17
2023-04-14T11:05:06.505Z,52.00
2023-04-14T11:08:14.373Z,50.85
2023-04-14T11:11:17.899Z,50.52
2023-04-14T11:14:27.547Z,48.42
2023-04-14T11:17:33.228Z,49.01
2023-04-14T11:20:41.145Z,50.25
2023-04-14T11:23:44.448Z,49.65
2023-04-14T11:26:47.456Z,45.81
2023-04-14T11:29:51.307Z,46.24
2023-04-14T11:32:58.587Z,44.81
2023-04-14T11:36:03.236Z,42.62
2023-04-14T11:39:06.839Z,44.55
2023-04-14T11:42:09.582Z,45.82
2023-04-14T11:45:15.552Z,44.35
2023-04-14T11:48:21.752Z,43.91
2023-04-14T11:51:30.667Z,41.04
2023-04-14T11:54:36.436Z,43.67
2023-04-14T11:57:39.282Z,42.31
2023-04-14T12:00:42.952Z,41.56
2023-04-14T12:03:47.223Z,42.51
2023-04-14T12:06:50.150Z,40.32
2023-04-14T12:09:52.827Z,41.36
2023-04-14T12:13:00.946Z,42.12
2023-04-14T12:16:05.016Z,38.38
2023-04-14T12:19:09.216Z,37.47
2023-04-14T12:22:12.177Z,36.96
2023-04-14T12:25:14.905Z,36.20
2023-04-14T12:28:19.467Z,36.01
2023-04-14T12:31:28.618Z,35.92
2023-04-14T12:34:33.042Z,36.07
2023-04-14T12:37:35.798Z,35.25
2023-04-14T12:40:40.730Z,37.11
2023-04-14T12:43:43.439Z,35.94
2023-04-14T12:46:48.712Z,34.95
2023-04-14T12:49:53.847Z,35.30
2023-04-14T12:52:57.253Z,35.27
2023-04-14T12:56:07.903Z,35.67
2023-04-14T12:59:10.631Z,36.31
2023-04-14T13:02:14.136Z,36.01
2023-04-14T13:05:18.537Z,34.90
2023-04-14T13:08:21.182Z,34.02
2023-04-14T13:11:25.111Z,35.23
2023-04-14T13:14:27.799Z,34.03
2023-04-14T13:17:30.747Z,34.83
2023-04-14T13:20:35.237Z,33.14
2023-04-14T13:23:38.240Z,33.76
2023-04-14T13:26:40.979Z,38.14
2023-04-14T13:29:43.833Z,39.25
2023-04-14T13:32:46.750Z,39.26
2023-04-14T13:35:51.518Z,40.10
2023-04-14T13:38:56.081Z,40.44
2023-04-14T13:41:59.514Z,40.19
2023-04-14T13:45:02.275Z,39.18
2023-04-14T13:48:05.684Z,38.96
2023-04-14T13:51:09.724Z,38.87
2023-04-14T13:54:12.720Z,38.58
2023-04-14T13:57:15.501Z,38.73
2023-04-14T14:00:18.619Z,38.05
2023-04-14T14:03:21.327Z,36.38
2023-04-14T14:06:26.476Z,33.61
2023-04-14T14:09:29.396Z,34.36
2023-04-14T14:12:32.516Z,34.76
2023-04-14T14:15:35.554Z,34.71
2023-04-14T14:18:38.436Z,34.37
2023-04-14T14:21:44.031Z,33.51
2023-04-14T14:24:47.052Z,32.81
2023-04-14T14:27:51.961Z,32.52
2023-04-14T14:30:54.766Z,33.66
2023-04-14T14:33:57.467Z,33.95
2023-04-14T14:37:02.276Z,34.06
2023-04-14T14:40:06.738Z,33.07
2023-04-14T14:43:09.620Z,34.38
2023-04-14T14:46:12.378Z,34.59
2023-04-14T14:49:15.473Z,34.15
2023-04-14T14:52:19.534Z,33.67
2023-04-14T14:55:22.176Z,34.46
2023-04-14T14:58:25.404Z,33.53
2023-04-14T15:01:28.241Z,34.11
2023-04-14T15:04:31.228Z,34.81
2023-04-14T15:07:35.342Z,35.43
2023-04-14T15:10:38.000Z,35.18
2023-04-14T15:13:40.732Z,34.91
2023-04-14T15:16:43.452Z,35.80
2023-04-14T15:19:46.774Z,37.67
2023-04-14T15:22:50.856Z,38.66
2023-04-14T15:25:53.656Z,38.93
2023-04-14T15:28:56.442Z,40.46
2023-04-14T15:35:01.778Z,41.39
2023-04-14T15:38:06.147Z,42.16
2023-04-14T15:41:08.829Z,42.57
2023-04-14T15:44:11.610Z,43.04
2023-04-14T15:47:14.296Z,43.01
2023-04-14T15:50:18.746Z,43.43
2023-04-14T15:53:23.575Z,43.22
2023-04-14T15:56:26.522Z,43.65
2023-04-14T15:59:30.296Z,44.41
2023-04-14T16:02:35.239Z,44.33
2023-04-14T16:05:37.990Z,43.53
2023-04-14T16:08:42.208Z,43.69
2023-04-14T16:11:44.856Z,42.51
2023-04-14T16:14:47.522Z,41.90
2023-04-14T16:17:51.095Z,42.10
2023-04-14T16:20:53.796Z,41.39
2023-04-14T16:23:57.903Z,41.68
2023-04-14T16:27:01.081Z,40.98
2023-04-14T16:30:03.959Z,41.10
2023-04-14T16:33:06.902Z,40.75
2023-04-14T16:36:09.624Z,40.41
2023-04-14T16:39:13.687Z,39.77
2023-04-14T16:42:18.936Z,39.92
2023-04-14T16:45:21.771Z,38.83
2023-04-14T16:48:24.457Z,37.74
2023-04-14T16:51:27.934Z,38.96
2023-04-14T16:54:32.657Z,38.76
2023-04-14T16:57:35.473Z,39.69
2023-04-14T17:00:38.219Z,40.44
2023-04-14T17:03:41.591Z,40.16
2023-04-14T17:06:44.498Z,41.71
2023-04-14T17:09:48.971Z,40.55
2023-04-14T17:12:53.793Z,40.53
2023-04-14T17:16:06.166Z,40.45
2023-04-14T17:19:14.013Z,40.58
2023-04-14T17:22:16.711Z,41.61
2023-04-14T17:25:22.932Z,42.58
2023-04-14T17:28:26.768Z,42.80
2023-04-14T17:31:29.664Z,42.64
2023-04-14T17:34:32.456Z,43.05
2023-04-14T17:37:36.142Z,43.23
2023-04-14T17:40:40.385Z,43.32
2023-04-14T17:43:43.118Z,43.77
2023-04-14T17:46:46.508Z,43.99
2023-04-14T17:49:50.001Z,44.34
2023-04-14T17:52:53.942Z,44.30
2023-04-14T17:55:58.853Z,45.13
2023-04-14T17:59:02.952Z,44.79
2023-04-14T18:02:05.665Z,45.28
2023-04-14T18:05:11.117Z,45.63
2023-04-14T18:08:14.273Z,45.51
2023-04-14T18:11:18.489Z,45.42
2023-04-14T18:14:21.655Z,47.14
2023-04-14T18:17:24.935Z,48.74
2023-04-14T18:20:27.745Z,50.11
2023-04-14T18:23:31.977Z,50.03
2023-04-14T18:26:36.186Z,50.94
2023-04-14T18:29:39.105Z,51.59
2023-04-14T18:32:42.024Z,51.48
2023-04-14T18:35:50.587Z,51.43
2023-04-14T18:38:53.232Z,51.97
2023-04-14T18:41:57.239Z,52.16
2023-04-14T18:44:59.978Z,53.03
2023-04-14T18:48:03.287Z,52.89
2023-04-14T18:51:08.158Z,53.61
2023-04-14T18:54:13.805Z,53.83
2023-04-14T18:57:18.028Z,54.85
2023-04-14T19:00:20.995Z,55.48
2023-04-14T19:03:24.026Z,56.20
2023-04-14T19:06:27.502Z,56.29
2023-04-14T19:09:30.153Z,56.66
2023-04-14T19:12:34.485Z,56.61
2023-04-14T19:15:37.612Z,57.05
2023-04-14T19:18:41.050Z,57.31
2023-04-14T19:21:43.726Z,58.31
2023-04-14T19:24:46.407Z,58.59
2023-04-14T19:27:51.045Z,58.48
2023-04-14T19:30:54.316Z,58.49
2023-04-14T19:33:58.669Z,58.06
2023-04-14T19:37:03.254Z,58.43
2023-04-14T19:40:08.239Z,58.82
2023-04-14T19:43:13.832Z,59.87
2023-04-14T19:46:18.025Z,60.16
2023-04-14T19:49:20.872Z,59.89
2023-04-14T19:52:23.645Z,60.30
2023-04-14T19:55:26.349Z,60.64
2023-04-14T19:58:31.384Z,61.06
2023-04-14T20:01:34.404Z,61.61
2023-04-14T20:04:37.736Z,61.74
2023-04-14T20:07:40.726Z,62.37
2023-04-14T20:10:43.576Z,62.48
2023-04-14T20:13:47.864Z,62.81
2023-04-14T20:16:51.497Z,62.77
2023-04-14T20:19:54.760Z,62.62
2023-04-14T20:22:59.080Z,63.08
2023-04-14T20:26:02.295Z,63.30
2023-04-14T20:29:06.513Z,62.95
2023-04-14T20:32:09.435Z,63.44
2023-04-14T20:35:13.059Z,63.33
2023-04-14T20:38:16.202Z,63.63
2023-04-14T20:41:19.270Z,64.13
2023-04-14T20:44:23.281Z,64.43
2023-04-14T20:47:26.707Z,64.55
2023-04-14T20:50:29.696Z,64.36
2023-04-14T20:53:32.355Z,64.70
2023-04-14T20:56:35.055Z,65.05
2023-04-14T20:59:39.366Z,65.13
2023-04-14T21:02:43.504Z,65.67
2023-04-14T21:05:47.369Z,65.69
2023-04-14T21:08:50.081Z,66.07
2023-04-14T21:12:15.258Z,69.16
2023-04-14T21:15:48.555Z,71.41
2023-04-14T21:18:40.743Z,72.62
2023-04-14T21:21:43.396Z,73.14
2023-04-14T21:24:48.530Z,73.56
2023-04-14T21:27:51.383Z,73.31
2023-04-14T21:31:00.432Z,72.77
2023-04-14T21:34:04.654Z,72.33
2023-04-14T21:37:07.456Z,72.46
2023-04-14T21:40:11.191Z,72.15
2023-04-14T21:43:13.821Z,71.95
2023-04-14T21:46:17.944Z,72.06
2023-04-14T21:49:20.877Z,71.85
2023-04-14T21:52:23.521Z,71.84
2023-04-14T21:55:26.436Z,72.06
2023-04-14T21:58:29.080Z,72.55
2023-04-14T22:01:33.794Z,72.52
2023-04-14T22:04:37.377Z,72.60
2023-04-14T22:07:40.397Z,73.00
2023-04-14T22:10:43.437Z,73.17
2023-04-14T22:13:46.579Z,72.77
2023-04-14T22:16:50.649Z,72.98
2023-04-14T22:19:53.758Z,72.87
2023-04-14T22:22:57.131Z,73.17
2023-04-14T22:26:01.023Z,73.77
2023-04-14T22:29:04.381Z,73.39
2023-04-14T22:32:08.764Z,73.34
2023-04-14T22:35:11.516Z,73.28
2023-04-14T22:38:16.744Z,73.28
2023-04-14T22:41:19.782Z,73.54
2023-04-14T22:44:22.465Z,73.34
2023-04-14T22:47:26.893Z,73.30
2023-04-14T22:50:30.810Z,73.38
2023-04-14T22:53:33.509Z,73.81
2023-04-14T22:56:37.162Z,73.61
2023-04-14T22:59:39.803Z,73.61
2023-04-14T23:02:46.618Z,73.50
2023-04-14T23:05:50.512Z,73.94
2023-04-14T23:08:53.208Z,73.65
2023-04-14T23:11:58.105Z,73.63
2023-04-14T23:15:02.333Z,73.50
2023-04-14T23:18:06.524Z,73.79
2023-04-14T23:21:10.045Z,73.82
2023-04-14T23:24:13.938Z,73.58
2023-04-14T23:27:19.528Z,73.67
2023-04-14T23:30:22.226Z,74.01
2023-04-14T23:33:27.411Z,74.10
2023-04-14T23:36:30.310Z,74.15
2023-04-14T23:39:33.335Z,74.29
2023-04-14T23:42:36.003Z,74.57
2023-04-14T23:45:38.821Z,74.52
2023-04-14T23:48:42.973Z,74.53
2023-04-14T23:51:46.327Z,74.55
2023-04-14T23:54:48.994Z,74.74
